Latest Weather Observations for Inner Beacon

IDQ60901

Issued at 7:31 pm EST Thursday 21 February 2019 (issued every 10 minutes, with the page automatically refreshed every 10 minutes)

About weather observations | Map of Brisbane area stations | Latest observations for Brisbane area | Other Formats
Station Details ID: 040926 Name: INNER RECIPROCAL MARKER Lat: -27.26 Lon: 153.24 Height: 20.0 m
Data from the previous 72 hours. | See also: Recent months at Inner Beacon
Date/Time
EST
Temp
°C
App
Temp
°C
Dew
Point
°C
Rel
Hum
%
Delta-T
°C
Wind Press
QNH
hPa
Press
MSL
hPa
Rain since
9am
mm
Dir  Spd
km/h
Gust
km/h
Spd
kts
Gust
kts
21/07:30pm - - - - - SSE 52 63 28 34 - - -
21/07:00pm - - - - - SSE 50 65 27 35 - - -
21/06:30pm - - - - - SSE 48 61 26 33 - - -
21/06:00pm - - - - - SSE 46 56 25 30 - - -
21/05:30pm - - - - - SSE 50 61 27 33 - - -
21/05:00pm - - - - - SE 50 65 27 35 - - -
21/04:30pm - - - - - SE 52 61 28 33 - - -
21/04:00pm - - - - - SE 50 65 27 35 - - -
21/03:30pm - - - - - SE 48 59 26 32 - - -
21/03:00pm - - - - - SSE 46 56 25 30 - - -
21/02:30pm - - - - - SSE 44 54 24 29 - - -
21/02:00pm - - - - - SE 44 52 24 28 - - -
21/01:30pm - - - - - SSE 43 52 23 28 - - -
21/01:00pm - - - - - SSE 39 44 21 24 - - -
21/12:30pm - - - - - SSE 39 46 21 25 - - -
21/12:00pm - - - - - SSE 33 39 18 21 - - -
21/11:36am - - - - - SSE 39 61 21 33 - - -
21/11:30am - - - - - SSE 39 46 21 25 - - -
21/11:00am - - - - - SSE 41 48 22 26 - - -
21/10:30am - - - - - SSE 35 44 19 24 - - -
21/10:00am - - - - - SSE 41 50 22 27 - - -
21/09:30am - - - - - SSE 33 41 18 22 - - -
21/09:00am - - - - - S 33 39 18 21 - - -
21/08:30am - - - - - SSE 32 37 17 20 - - -
21/08:00am - - - - - S 24 30 13 16 - - -
21/07:30am - - - - - S 22 28 12 15 - - -
21/07:00am - - - - - S 22 30 12 16 - - -
21/06:30am - - - - - SSE 26 30 14 16 - - -
21/06:00am - - - - - SSE 24 28 13 15 - - -
21/05:30am - - - - - SSE 24 28 13 15 - - -
21/05:00am - - - - - SSE 24 30 13 16 - - -
21/04:30am - - - - - SSE 26 30 14 16 - - -
21/04:00am - - - - - SE 26 32 14 17 - - -
21/03:30am - - - - - SE 28 32 15 17 - - -
21/03:00am - - - - - SE 33 41 18 22 - - -
21/02:30am - - - - - SSE 33 39 18 21 - - -
21/02:00am - - - - - SSE 35 39 19 21 - - -
21/01:30am - - - - - SSE 30 35 16 19 - - -
21/01:00am - - - - - SSE 35 43 19 23 - - -
21/12:30am - - - - - S 26 32 14 17 - - -
21/12:00am - - - - - S 30 39 16 21 - - -
 
Date/Time
EST
Temp
°C
App
Temp
°C
Dew
Point
°C
Rel
Hum
%
Delta-T
°C
Wind Press
QNH
hPa
Press
MSL
hPa
Rain since
9am
mm
Dir  Spd
km/h
Gust
km/h
Spd
kts
Gust
kts
20/11:30pm - - - - - SSE 28 33 15 18 - - -
20/11:00pm - - - - - SSE 24 28 13 15 - - -
20/10:30pm - - - - - SE 22 28 12 15 - - -
20/10:00pm - - - - - SE 22 28 12 15 - - -
20/09:30pm - - - - - SE 22 26 12 14 - - -
20/09:00pm - - - - - SE 19 20 10 11 - - -
20/08:30pm - - - - - SE 19 22 10 12 - - -
20/08:00pm - - - - - ESE 20 24 11 13 - - -
20/07:30pm - - - - - ESE 19 22 10 12 - - -
20/07:00pm - - - - - ESE 19 24 10 13 - - -
20/06:30pm - - - - - ESE 22 24 12 13 - - -
20/06:00pm - - - - - ESE 22 26 12 14 - - -
20/05:30pm - - - - - ESE 22 28 12 15 - - -
20/05:00pm - - - - - ESE 22 28 12 15 - - -
20/04:30pm - - - - - ESE 24 32 13 17 - - -
20/04:00pm - - - - - ESE 24 30 13 16 - - -
20/03:30pm - - - - - E 22 28 12 15 - - -
20/03:00pm - - - - - ESE 24 30 13 16 - - -
20/02:30pm - - - - - E 20 28 11 15 - - -
20/02:00pm - - - - - SE 17 20 9 11 - - -
20/01:30pm - - - - - SE 19 22 10 12 - - -
20/01:00pm - - - - - ESE 17 20 9 11 - - -
20/12:30pm - - - - - SE 19 20 10 11 - - -
20/12:00pm - - - - - SE 17 24 9 13 - - -
20/11:30am - - - - - SSE 20 22 11 12 - - -
20/11:00am - - - - - SSE 19 20 10 11 - - -
20/10:30am - - - - - SSE 17 20 9 11 - - -
20/10:00am - - - - - S 19 20 10 11 - - -
20/09:30am - - - - - SSE 17 20 9 11 - - -
20/09:00am - - - - - SSE 15 20 8 11 - - -
20/08:30am - - - - - S 15 19 8 10 - - -
20/08:00am - - - - - S 17 20 9 11 - - -
20/07:30am - - - - - S 19 22 10 12 - - -
20/07:00am - - - - - SSE 17 20 9 11 - - -
20/06:30am - - - - - S 15 20 8 11 - - -
20/06:00am - - - - - SSE 17 20 9 11 - - -
20/05:30am - - - - - SSE 19 22 10 12 - - -
20/05:00am - - - - - SE 17 20 9 11 - - -
20/04:30am - - - - - SE 17 20 9 11 - - -
20/04:00am - - - - - ESE 17 20 9 11 - - -
20/03:30am - - - - - ESE 15 20 8 11 - - -
20/03:00am - - - - - E 11 15 6 8 - - -
20/02:30am - - - - - E 9 11 5 6 - - -
20/02:00am - - - - - E 6 9 3 5 - - -
20/01:30am - - - - - ENE 4 6 2 3 - - -
20/01:00am - - - - - CALM 0 4 0 2 - - -
20/12:30am - - - - - NE 6 7 3 4 - - -
20/12:00am - - - - - NE 7 9 4 5 - - -
 
Date/Time
EST
Temp
°C
App
Temp
°C
Dew
Point
°C
Rel
Hum
%
Delta-T
°C
Wind Press
QNH
hPa
Press
MSL
hPa
Rain since
9am
mm
Dir  Spd
km/h
Gust
km/h
Spd
kts
Gust
kts
19/11:30pm - - - - - NE 6 7 3 4 - - -
19/11:00pm - - - - - NE 6 7 3 4 - - -
19/10:30pm - - - - - NE 7 9 4 5 - - -
19/10:00pm - - - - - NE 9 11 5 6 - - -
19/09:30pm - - - - - NE 13 15 7 8 - - -
19/09:00pm - - - - - NE 11 15 6 8 - - -
19/08:30pm - - - - - NE 13 15 7 8 - - -
19/08:00pm - - - - - NE 13 15 7 8 - - -
19/07:30pm - - - - - NE 15 19 8 10 - - -
19/07:00pm - - - - - ENE 15 17 8 9 - - -
19/06:30pm - - - - - ENE 19 20 10 11 - - -
19/06:00pm - - - - - ENE 20 24 11 13 - - -
19/05:30pm - - - - - ENE 24 26 13 14 - - -
19/05:00pm - - - - - ENE 24 28 13 15 - - -
19/04:30pm - - - - - E 22 24 12 13 - - -
19/04:00pm - - - - - E 22 24 12 13 - - -
19/03:30pm - - - - - E 22 26 12 14 - - -
19/03:00pm - - - - - E 20 24 11 13 - - -
19/02:30pm - - - - - E 19 22 10 12 - - -
19/02:00pm - - - - - E 15 19 8 10 - - -
19/01:30pm - - - - - E 11 15 6 8 - - -
19/01:00pm - - - - - E 6 9 3 5 - - -
19/12:30pm - - - - - ESE 4 4 2 2 - - -
19/12:00pm - - - - - SSE 2 4 1 2 - - -
19/11:30am - - - - - SSW 4 6 2 3 - - -
19/11:00am - - - - - SW 6 7 3 4 - - -
19/10:30am - - - - - SW 7 9 4 5 - - -
19/10:00am - - - - - SSW 7 9 4 5 - - -
19/09:30am - - - - - SSW 9 11 5 6 - - -
19/09:00am - - - - - SSW 9 13 5 7 - - -
19/08:30am - - - - - SSW 13 15 7 8 - - -
19/08:00am - - - - - SSW 11 13 6 7 - - -
19/07:30am - - - - - SSW 11 13 6 7 - - -
19/07:00am - - - - - SSW 13 17 7 9 - - -
19/06:30am - - - - - SSW 15 19 8 10 - - -
19/06:00am - - - - - SSW 17 20 9 11 - - -
19/05:30am - - - - - S 17 19 9 10 - - -
19/05:00am - - - - - S 15 17 8 9 - - -
19/04:30am - - - - - SSW 17 20 9 11 - - -
19/04:00am - - - - - SSW 13 17 7 9 - - -
19/03:30am - - - - - S 13 15 7 8 - - -
19/03:00am - - - - - S 13 17 7 9 - - -
19/02:30am - - - - - SE 7 9 4 5 - - -
19/02:00am - - - - - SE 7 9 4 5 - - -
19/01:30am - - - - - ESE 9 13 5 7 - - -
19/01:00am - - - - - ESE 9 11 5 6 - - -
19/12:30am - - - - - E 9 13 5 7 - - -
19/12:00am - - - - - E 13 17 7 9 - - -
 
Date/Time
EST
Temp
°C
App
Temp
°C
Dew
Point
°C
Rel
Hum
%
Delta-T
°C
Wind Press
QNH
hPa
Press
MSL
hPa
Rain since
9am
mm
Dir  Spd
km/h
Gust
km/h
Spd
kts
Gust
kts
18/11:30pm - - - - - ESE 11 15 6 8 - - -
18/11:00pm - - - - - ESE 11 15 6 8 - - -
18/10:30pm - - - - - ESE 13 20 7 11 - - -
18/10:00pm - - - - - ESE 17 22 9 12 - - -
18/09:30pm - - - - - ESE 17 20 9 11 - - -
18/09:00pm - - - - - ESE 19 24 10 13 - - -
18/08:30pm - - - - - E 20 26 11 14 - - -
18/08:00pm - - - - - E 20 26 11 14 - - -

Latest Capital City Observations: Canberra | Sydney | Melbourne | Brisbane | Adelaide | Perth | Hobart | Darwin

Other formats

Comma delimited format used in spreadsheet applications
http://www.bom.gov.au/fwo/IDQ60901/IDQ60901.94590.axf

JavaScript Object Notation format (JSON) in row-major order
http://www.bom.gov.au/fwo/IDQ60901/IDQ60901.94590.json

Data quality

Most of these data are generated automatically and are frequently updated. Quality checks on data are not normally performed. It is possible for incorrect values to appear. Refer to information at About Latest Weather Observations and please check the disclaimer before using these data.